sensor_id;sensor_type;location;lat;lon;timestamp;pressure;altitude;pressure_sealevel;temperature;humidity
36380;BME280;22411;53.016;18.632;2023-02-18T00:00:27;99619.03;;;7.40;100.00
36380;BME280;22411;53.016;18.632;2023-02-18T00:03:13;99632.13;;;7.37;100.00
36380;BME280;22411;53.016;18.632;2023-02-18T00:05:39;99633.75;;;7.38;100.00
36380;BME280;22411;53.016;18.632;2023-02-18T00:08:05;99623.66;;;7.35;100.00
36380;BME280;22411;53.016;18.632;2023-02-18T00:10:31;99632.34;;;7.34;100.00
36380;BME280;22411;53.016;18.632;2023-02-18T00:12:56;99620.28;;;7.34;100.00
36380;BME280;22411;53.016;18.632;2023-02-18T00:15:23;99607.38;;;7.34;100.00
36380;BME280;22411;53.016;18.632;2023-02-18T00:17:48;99667.59;;;7.33;100.00
36380;BME280;22411;53.016;18.632;2023-02-18T00:20:15;99627.88;;;7.36;100.00
36380;BME280;22411;53.016;18.632;2023-02-18T00:22:40;99637.06;;;7.40;100.00
36380;BME280;22411;53.016;18.632;2023-02-18T00:25:07;99626.53;;;7.43;100.00
36380;BME280;22411;53.016;18.632;2023-02-18T00:27:32;99613.13;;;7.38;100.00
36380;BME280;22411;53.016;18.632;2023-02-18T00:29:59;99634.09;;;7.33;100.00
36380;BME280;22411;53.016;18.632;2023-02-18T00:32:25;99624.38;;;7.37;100.00
36380;BME280;22411;53.016;18.632;2023-02-18T00:34:51;99629.97;;;7.31;100.00
36380;BME280;22411;53.016;18.632;2023-02-18T00:37:17;99659.13;;;7.31;100.00
36380;BME280;22411;53.016;18.632;2023-02-18T00:39:43;99646.16;;;7.33;100.00
36380;BME280;22411;53.016;18.632;2023-02-18T00:42:09;99649.97;;;7.27;100.00
36380;BME280;22411;53.016;18.632;2023-02-18T00:44:35;99648.00;;;7.31;100.00
36380;BME280;22411;53.016;18.632;2023-02-18T00:47:01;99666.78;;;7.33;100.00
36380;BME280;22411;53.016;18.632;2023-02-18T00:49:27;99648.22;;;7.28;100.00
36380;BME280;22411;53.016;18.632;2023-02-18T00:51:53;99687.81;;;7.27;100.00
36380;BME280;22411;53.016;18.632;2023-02-18T00:54:20;99660.28;;;7.27;100.00
36380;BME280;22411;53.016;18.632;2023-02-18T00:56:45;99642.66;;;7.21;100.00
36380;BME280;22411;53.016;18.632;2023-02-18T00:59:12;99652.66;;;7.26;100.00
36380;BME280;22411;53.016;18.632;2023-02-18T01:01:37;99634.91;;;7.21;100.00
36380;BME280;22411;53.016;18.632;2023-02-18T01:04:04;99643.59;;;7.20;100.00
36380;BME280;22411;53.016;18.632;2023-02-18T01:06:30;99626.78;;;7.15;100.00
36380;BME280;22411;53.016;18.632;2023-02-18T01:08:57;99617.72;;;7.09;100.00
36380;BME280;22411;53.016;18.632;2023-02-18T01:11:23;99647.06;;;7.06;100.00
36380;BME280;22411;53.016;18.632;2023-02-18T01:13:50;99611.44;;;7.00;100.00
36380;BME280;22411;53.016;18.632;2023-02-18T01:16:16;99623.28;;;7.03;100.00
36380;BME280;22411;53.016;18.632;2023-02-18T01:18:43;99639.34;;;6.94;100.00
36380;BME280;22411;53.016;18.632;2023-02-18T01:21:09;99626.47;;;6.94;100.00
36380;BME280;22411;53.016;18.632;2023-02-18T01:23:37;99704.41;;;6.97;100.00
36380;BME280;22411;53.016;18.632;2023-02-18T01:26:04;99645.13;;;6.97;100.00
36380;BME280;22411;53.016;18.632;2023-02-18T01:28:31;99656.69;;;6.92;100.00
36380;BME280;22411;53.016;18.632;2023-02-18T01:30:57;99638.53;;;6.93;100.00
36380;BME280;22411;53.016;18.632;2023-02-18T01:33:23;99637.81;;;6.91;100.00
36380;BME280;22411;53.016;18.632;2023-02-18T01:35:51;99669.75;;;6.89;100.00
36380;BME280;22411;53.016;18.632;2023-02-18T01:38:18;99626.25;;;6.84;100.00
36380;BME280;22411;53.016;18.632;2023-02-18T01:40:47;99614.94;;;6.87;100.00
36380;BME280;22411;53.016;18.632;2023-02-18T01:43:17;99621.03;;;6.86;100.00
36380;BME280;22411;53.016;18.632;2023-02-18T01:49:02;99649.56;;;6.82;100.00
36380;BME280;22411;53.016;18.632;2023-02-18T01:51:28;99672.75;;;6.82;100.00
36380;BME280;22411;53.016;18.632;2023-02-18T01:56:46;99673.03;;;6.78;100.00
36380;BME280;22411;53.016;18.632;2023-02-18T01:59:17;99658.50;;;6.77;100.00
36380;BME280;22411;53.016;18.632;2023-02-18T02:01:44;99635.44;;;6.75;100.00
36380;BME280;22411;53.016;18.632;2023-02-18T02:04:11;99639.16;;;6.71;100.00
36380;BME280;22411;53.016;18.632;2023-02-18T02:06:37;99653.13;;;6.67;100.00
36380;BME280;22411;53.016;18.632;2023-02-18T02:09:05;99668.06;;;6.62;100.00
36380;BME280;22411;53.016;18.632;2023-02-18T02:17:03;99639.22;;;6.57;100.00
36380;BME280;22411;53.016;18.632;2023-02-18T02:22:57;99692.97;;;6.49;100.00
36380;BME280;22411;53.016;18.632;2023-02-18T02:39:39;99651.84;;;6.35;100.00
36380;BME280;22411;53.016;18.632;2023-02-18T02:44:57;99681.66;;;6.24;100.00
36380;BME280;22411;53.016;18.632;2023-02-18T02:50:05;99689.38;;;6.24;100.00
36380;BME280;22411;53.016;18.632;2023-02-18T02:52:40;99683.41;;;6.24;100.00
36380;BME280;22411;53.016;18.632;2023-02-18T02:55:09;99679.19;;;6.23;100.00
36380;BME280;22411;53.016;18.632;2023-02-18T02:57:40;99679.38;;;6.20;100.00
36380;BME280;22411;53.016;18.632;2023-02-18T03:00:09;99668.66;;;6.13;100.00
36380;BME280;22411;53.016;18.632;2023-02-18T03:03:02;99678.81;;;6.15;100.00
36380;BME280;22411;53.016;18.632;2023-02-18T03:05:47;99691.97;;;6.10;100.00
36380;BME280;22411;53.016;18.632;2023-02-18T03:11:24;99699.09;;;6.07;100.00
36380;BME280;22411;53.016;18.632;2023-02-18T03:14:01;99711.47;;;6.00;100.00
36380;BME280;22411;53.016;18.632;2023-02-18T03:16:48;99698.63;;;6.00;100.00
36380;BME280;22411;53.016;18.632;2023-02-18T03:19:41;99698.22;;;6.06;100.00
36380;BME280;22411;53.016;18.632;2023-02-18T03:22:16;99694.22;;;6.02;100.00
36380;BME280;22411;53.016;18.632;2023-02-18T03:24:46;99703.88;;;5.98;100.00
36380;BME280;22411;53.016;18.632;2023-02-18T03:27:26;99669.16;;;5.91;100.00
36380;BME280;22411;53.016;18.632;2023-02-18T03:30:15;99668.97;;;5.94;100.00
36380;BME280;22411;53.016;18.632;2023-02-18T03:32:44;99674.47;;;5.88;100.00
36380;BME280;22411;53.016;18.632;2023-02-18T03:35:15;99674.47;;;5.88;100.00
36380;BME280;22411;53.016;18.632;2023-02-18T03:37:50;99677.03;;;5.88;100.00
36380;BME280;22411;53.016;18.632;2023-02-18T03:40:17;99682.03;;;5.91;100.00
36380;BME280;22411;53.016;18.632;2023-02-18T03:42:44;99694.94;;;5.90;100.00
36380;BME280;22411;53.016;18.632;2023-02-18T03:45:10;99731.03;;;5.88;100.00
36380;BME280;22411;53.016;18.632;2023-02-18T03:47:37;99719.00;;;5.89;100.00
36380;BME280;22411;53.016;18.632;2023-02-18T03:50:03;99684.75;;;5.88;100.00
36380;BME280;22411;53.016;18.632;2023-02-18T03:52:29;99723.59;;;5.84;100.00
36380;BME280;22411;53.016;18.632;2023-02-18T03:54:55;99681.63;;;5.83;100.00
36380;BME280;22411;53.016;18.632;2023-02-18T03:57:21;99674.13;;;5.80;100.00
36380;BME280;22411;53.016;18.632;2023-02-18T03:59:47;99717.75;;;5.82;100.00
36380;BME280;22411;53.016;18.632;2023-02-18T04:02:13;99710.03;;;5.82;100.00
36380;BME280;22411;53.016;18.632;2023-02-18T04:04:39;99711.03;;;5.79;100.00
36380;BME280;22411;53.016;18.632;2023-02-18T04:07:05;99699.84;;;5.80;100.00
36380;BME280;22411;53.016;18.632;2023-02-18T04:09:31;99704.13;;;5.80;100.00
36380;BME280;22411;53.016;18.632;2023-02-18T04:11:57;99738.22;;;5.83;100.00
36380;BME280;22411;53.016;18.632;2023-02-18T04:14:23;99709.19;;;5.81;100.00
36380;BME280;22411;53.016;18.632;2023-02-18T04:16:49;99716.81;;;5.83;100.00
36380;BME280;22411;53.016;18.632;2023-02-18T04:19:15;99721.03;;;5.84;100.00
36380;BME280;22411;53.016;18.632;2023-02-18T04:21:41;99742.25;;;5.87;100.00
36380;BME280;22411;53.016;18.632;2023-02-18T04:24:07;99727.09;;;5.83;100.00
36380;BME280;22411;53.016;18.632;2023-02-18T04:26:33;99714.06;;;5.86;100.00
36380;BME280;22411;53.016;18.632;2023-02-18T04:28:59;99728.47;;;5.88;100.00
36380;BME280;22411;53.016;18.632;2023-02-18T04:31:25;99724.34;;;5.86;100.00
36380;BME280;22411;53.016;18.632;2023-02-18T04:33:51;99726.63;;;5.90;100.00
36380;BME280;22411;53.016;18.632;2023-02-18T04:36:17;99719.94;;;5.88;100.00
36380;BME280;22411;53.016;18.632;2023-02-18T04:38:43;99709.81;;;5.85;100.00
36380;BME280;22411;53.016;18.632;2023-02-18T04:41:09;99746.19;;;5.78;100.00
36380;BME280;22411;53.016;18.632;2023-02-18T04:43:37;99737.88;;;5.75;100.00
36380;BME280;22411;53.016;18.632;2023-02-18T04:46:03;99749.03;;;5.74;100.00
36380;BME280;22411;53.016;18.632;2023-02-18T04:48:29;99723.88;;;5.79;100.00
36380;BME280;22411;53.016;18.632;2023-02-18T04:50:56;99738.75;;;5.74;100.00
36380;BME280;22411;53.016;18.632;2023-02-18T04:53:22;99741.97;;;5.77;100.00
36380;BME280;22411;53.016;18.632;2023-02-18T04:55:49;99719.00;;;5.74;100.00
36380;BME280;22411;53.016;18.632;2023-02-18T04:58:16;99757.03;;;5.69;100.00
36380;BME280;22411;53.016;18.632;2023-02-18T05:00:43;99730.50;;;5.69;100.00
36380;BME280;22411;53.016;18.632;2023-02-18T05:03:09;99735.00;;;5.65;100.00
36380;BME280;22411;53.016;18.632;2023-02-18T05:05:35;99740.78;;;5.69;100.00
36380;BME280;22411;53.016;18.632;2023-02-18T05:08:03;99724.53;;;5.68;100.00
36380;BME280;22411;53.016;18.632;2023-02-18T05:10:29;99740.97;;;5.66;100.00
36380;BME280;22411;53.016;18.632;2023-02-18T05:12:55;99757.41;;;5.63;100.00
36380;BME280;22411;53.016;18.632;2023-02-18T05:15:21;99800.84;;;5.68;100.00
36380;BME280;22411;53.016;18.632;2023-02-18T05:17:47;99773.59;;;5.65;100.00
36380;BME280;22411;53.016;18.632;2023-02-18T05:20:13;99753.72;;;5.67;100.00
36380;BME280;22411;53.016;18.632;2023-02-18T05:22:39;99771.00;;;5.65;100.00
36380;BME280;22411;53.016;18.632;2023-02-18T05:25:06;99775.22;;;5.66;100.00
36380;BME280;22411;53.016;18.632;2023-02-18T05:27:32;99784.97;;;5.61;100.00
36380;BME280;22411;53.016;18.632;2023-02-18T05:29:58;99784.78;;;5.64;100.00
36380;BME280;22411;53.016;18.632;2023-02-18T05:32:24;99778.91;;;5.62;100.00
36380;BME280;22411;53.016;18.632;2023-02-18T05:34:50;99808.09;;;5.61;100.00
36380;BME280;22411;53.016;18.632;2023-02-18T05:37:16;99809.19;;;5.57;100.00
36380;BME280;22411;53.016;18.632;2023-02-18T05:39:44;99811.50;;;5.62;100.00
36380;BME280;22411;53.016;18.632;2023-02-18T05:42:10;99797.66;;;5.64;100.00
36380;BME280;22411;53.016;18.632;2023-02-18T05:44:36;99800.38;;;5.61;100.00
36380;BME280;22411;53.016;18.632;2023-02-18T05:47:07;99870.34;;;5.66;100.00
36380;BME280;22411;53.016;18.632;2023-02-18T05:49:34;99828.31;;;5.67;100.00
36380;BME280;22411;53.016;18.632;2023-02-18T05:52:01;99821.50;;;5.66;100.00
36380;BME280;22411;53.016;18.632;2023-02-18T05:54:27;99820.59;;;5.67;100.00
36380;BME280;22411;53.016;18.632;2023-02-18T05:56:54;99836.00;;;5.67;100.00
36380;BME280;22411;53.016;18.632;2023-02-18T05:59:21;99835.91;;;5.69;100.00
36380;BME280;22411;53.016;18.632;2023-02-18T06:01:47;99838.59;;;5.67;100.00
36380;BME280;22411;53.016;18.632;2023-02-18T06:04:14;99837.75;;;5.67;100.00
36380;BME280;22411;53.016;18.632;2023-02-18T06:06:40;99830.16;;;5.65;100.00
36380;BME280;22411;53.016;18.632;2023-02-18T06:09:07;99859.16;;;5.67;100.00
36380;BME280;22411;53.016;18.632;2023-02-18T06:11:33;99859.16;;;5.67;100.00
36380;BME280;22411;53.016;18.632;2023-02-18T06:14:00;99852.25;;;5.68;100.00
36380;BME280;22411;53.016;18.632;2023-02-18T06:16:26;99868.59;;;5.67;100.00
36380;BME280;22411;53.016;18.632;2023-02-18T06:18:52;99860.16;;;5.65;100.00
36380;BME280;22411;53.016;18.632;2023-02-18T06:21:18;99889.19;;;5.67;100.00
36380;BME280;22411;53.016;18.632;2023-02-18T06:23:44;99882.28;;;5.67;100.00
36380;BME280;22411;53.016;18.632;2023-02-18T06:26:10;99877.88;;;5.69;100.00
36380;BME280;22411;53.016;18.632;2023-02-18T06:28:36;99882.50;;;5.64;100.00
36380;BME280;22411;53.016;18.632;2023-02-18T06:31:03;99884.13;;;5.65;100.00
36380;BME280;22411;53.016;18.632;2023-02-18T06:33:29;99889.28;;;5.65;100.00
36380;BME280;22411;53.016;18.632;2023-02-18T06:35:58;99886.44;;;5.70;100.00
36380;BME280;22411;53.016;18.632;2023-02-18T06:38:25;99914.78;;;5.68;100.00
36380;BME280;22411;53.016;18.632;2023-02-18T06:40:51;99892.47;;;5.69;100.00
36380;BME280;22411;53.016;18.632;2023-02-18T06:43:19;99916.38;;;5.71;100.00
36380;BME280;22411;53.016;18.632;2023-02-18T06:45:45;99958.50;;;5.68;100.00
36380;BME280;22411;53.016;18.632;2023-02-18T06:48:12;99926.91;;;5.66;100.00
36380;BME280;22411;53.016;18.632;2023-02-18T06:50:40;99910.56;;;5.67;100.00
36380;BME280;22411;53.016;18.632;2023-02-18T06:53:06;99915.91;;;5.64;100.00
36380;BME280;22411;53.016;18.632;2023-02-18T06:55:32;99917.47;;;5.67;100.00
36380;BME280;22411;53.016;18.632;2023-02-18T06:57:58;99921.88;;;5.65;100.00
36380;BME280;22411;53.016;18.632;2023-02-18T07:00:24;99930.97;;;5.70;100.00
36380;BME280;22411;53.016;18.632;2023-02-18T07:02:51;99908.94;;;5.66;100.00
36380;BME280;22411;53.016;18.632;2023-02-18T07:05:17;99937.22;;;5.66;100.00
36380;BME280;22411;53.016;18.632;2023-02-18T07:07:43;99933.63;;;5.69;100.00
36380;BME280;22411;53.016;18.632;2023-02-18T07:10:10;99949.63;;;5.74;100.00
36380;BME280;22411;53.016;18.632;2023-02-18T07:12:36;99935.09;;;5.73;100.00
36380;BME280;22411;53.016;18.632;2023-02-18T07:15:02;99920.34;;;5.76;100.00
36380;BME280;22411;53.016;18.632;2023-02-18T07:17:29;99946.06;;;5.76;100.00
36380;BME280;22411;53.016;18.632;2023-02-18T07:19:54;99934.75;;;5.79;100.00
36380;BME280;22411;53.016;18.632;2023-02-18T07:22:21;99975.00;;;5.80;100.00
36380;BME280;22411;53.016;18.632;2023-02-18T07:24:51;99953.50;;;5.81;100.00
36380;BME280;22411;53.016;18.632;2023-02-18T07:27:18;99946.25;;;5.88;100.00
36380;BME280;22411;53.016;18.632;2023-02-18T07:29:46;99975.06;;;5.94;100.00
36380;BME280;22411;53.016;18.632;2023-02-18T07:32:18;99955.97;;;5.98;100.00
36380;BME280;22411;53.016;18.632;2023-02-18T07:34:44;99948.91;;;6.02;100.00
36380;BME280;22411;53.016;18.632;2023-02-18T07:37:10;99957.50;;;6.01;100.00
36380;BME280;22411;53.016;18.632;2023-02-18T07:39:41;99963.53;;;6.01;100.00
36380;BME280;22411;53.016;18.632;2023-02-18T07:42:09;99990.78;;;6.04;100.00
36380;BME280;22411;53.016;18.632;2023-02-18T07:44:35;99973.50;;;6.06;100.00
36380;BME280;22411;53.016;18.632;2023-02-18T07:47:03;99979.22;;;6.11;100.00
36380;BME280;22411;53.016;18.632;2023-02-18T07:49:29;99979.06;;;6.14;100.00
36380;BME280;22411;53.016;18.632;2023-02-18T07:51:55;99994.66;;;6.11;100.00
36380;BME280;22411;53.016;18.632;2023-02-18T07:54:21;100010.44;;;6.05;100.00
36380;BME280;22411;53.016;18.632;2023-02-18T07:56:48;99980.41;;;6.06;100.00
36380;BME280;22411;53.016;18.632;2023-02-18T07:59:14;99963.22;;;6.06;100.00
36380;BME280;22411;53.016;18.632;2023-02-18T08:01:40;99974.84;;;6.13;100.00
36380;BME280;22411;53.016;18.632;2023-02-18T08:04:07;99986.06;;;6.12;100.00
36380;BME280;22411;53.016;18.632;2023-02-18T08:06:41;99990.00;;;6.18;100.00
36380;BME280;22411;53.016;18.632;2023-02-18T08:09:08;99975.47;;;6.17;100.00
36380;BME280;22411;53.016;18.632;2023-02-18T08:11:36;99991.28;;;6.25;100.00
36380;BME280;22411;53.016;18.632;2023-02-18T08:14:02;99998.91;;;6.26;100.00
36380;BME280;22411;53.016;18.632;2023-02-18T08:16:28;99986.81;;;6.28;100.00
36380;BME280;22411;53.016;18.632;2023-02-18T08:18:55;99991.75;;;6.32;100.00
36380;BME280;22411;53.016;18.632;2023-02-18T08:21:23;99985.06;;;6.29;100.00
36380;BME280;22411;53.016;18.632;2023-02-18T08:23:50;99981.41;;;6.33;100.00
36380;BME280;22411;53.016;18.632;2023-02-18T08:26:17;99985.81;;;6.45;100.00
36380;BME280;22411;53.016;18.632;2023-02-18T08:28:44;99983.94;;;6.47;100.00
36380;BME280;22411;53.016;18.632;2023-02-18T08:31:19;99995.47;;;6.56;100.00
36380;BME280;22411;53.016;18.632;2023-02-18T08:33:46;99989.56;;;6.40;100.00
36380;BME280;22411;53.016;18.632;2023-02-18T08:36:12;100007.03;;;6.35;100.00
36380;BME280;22411;53.016;18.632;2023-02-18T08:38:40;99989.00;;;6.35;100.00
36380;BME280;22411;53.016;18.632;2023-02-18T08:41:07;99977.34;;;6.29;100.00
36380;BME280;22411;53.016;18.632;2023-02-18T08:43:36;99983.50;;;6.41;100.00
36380;BME280;22411;53.016;18.632;2023-02-18T08:46:03;99979.84;;;6.45;100.00
36380;BME280;22411;53.016;18.632;2023-02-18T08:48:29;99995.38;;;6.43;100.00
36380;BME280;22411;53.016;18.632;2023-02-18T08:50:55;99985.81;;;6.45;100.00
36380;BME280;22411;53.016;18.632;2023-02-18T08:53:22;99994.91;;;6.51;100.00
36380;BME280;22411;53.016;18.632;2023-02-18T08:55:48;99983.22;;;6.45;100.00
36380;BME280;22411;53.016;18.632;2023-02-18T08:58:14;99982.41;;;6.45;100.00
36380;BME280;22411;53.016;18.632;2023-02-18T09:00:43;99997.75;;;6.46;100.00
36380;BME280;22411;53.016;18.632;2023-02-18T09:03:13;99991.59;;;6.49;100.00
36380;BME280;22411;53.016;18.632;2023-02-18T09:05:39;99993.97;;;6.52;100.00
36380;BME280;22411;53.016;18.632;2023-02-18T09:08:06;100021.94;;;6.58;100.00
36380;BME280;22411;53.016;18.632;2023-02-18T09:10:32;100000.63;;;6.56;100.00
36380;BME280;22411;53.016;18.632;2023-02-18T09:12:58;100022.69;;;6.60;100.00
36380;BME280;22411;53.016;18.632;2023-02-18T09:15:24;100021.88;;;6.60;100.00
36380;BME280;22411;53.016;18.632;2023-02-18T09:17:50;99999.25;;;6.65;100.00
36380;BME280;22411;53.016;18.632;2023-02-18T09:20:16;100052.03;;;6.72;100.00
36380;BME280;22411;53.016;18.632;2023-02-18T09:22:43;100030.41;;;7.17;100.00
36380;BME280;22411;53.016;18.632;2023-02-18T09:25:09;100021.09;;;7.56;100.00
36380;BME280;22411;53.016;18.632;2023-02-18T09:27:36;100013.50;;;7.40;100.00
36380;BME280;22411;53.016;18.632;2023-02-18T09:30:03;100019.63;;;7.11;100.00
36380;BME280;22411;53.016;18.632;2023-02-18T09:32:30;100029.41;;;6.91;100.00
36380;BME280;22411;53.016;18.632;2023-02-18T09:34:56;100041.00;;;6.70;100.00
36380;BME280;22411;53.016;18.632;2023-02-18T09:37:22;100034.28;;;6.67;100.00
36380;BME280;22411;53.016;18.632;2023-02-18T09:39:48;100040.34;;;6.66;100.00
36380;BME280;22411;53.016;18.632;2023-02-18T09:42:17;100034.09;;;6.70;100.00
36380;BME280;22411;53.016;18.632;2023-02-18T09:44:49;100048.50;;;6.59;100.00
36380;BME280;22411;53.016;18.632;2023-02-18T09:47:32;100034.66;;;6.61;100.00
36380;BME280;22411;53.016;18.632;2023-02-18T09:50:17;100049.63;;;6.69;100.00
36380;BME280;22411;53.016;18.632;2023-02-18T09:52:45;100035.75;;;6.86;100.00
36380;BME280;22411;53.016;18.632;2023-02-18T09:55:28;100052.28;;;6.96;100.00
36380;BME280;22411;53.016;18.632;2023-02-18T09:57:57;100036.31;;;6.91;100.00
36380;BME280;22411;53.016;18.632;2023-02-18T10:00:33;100046.03;;;7.00;100.00
36380;BME280;22411;53.016;18.632;2023-02-18T10:03:29;100063.78;;;6.90;100.00
36380;BME280;22411;53.016;18.632;2023-02-18T10:06:05;100034.00;;;6.86;100.00
36380;BME280;22411;53.016;18.632;2023-02-18T10:08:48;100034.47;;;7.07;100.00
36380;BME280;22411;53.016;18.632;2023-02-18T10:11:30;100042.91;;;7.09;100.00
36380;BME280;22411;53.016;18.632;2023-02-18T10:13:59;100043.28;;;7.03;100.00
36380;BME280;22411;53.016;18.632;2023-02-18T10:16:26;100034.91;;;6.99;100.00
36380;BME280;22411;53.016;18.632;2023-02-18T10:19:05;100036.94;;;7.08;100.00
36380;BME280;22411;53.016;18.632;2023-02-18T10:21:35;100033.31;;;7.11;100.00
36380;BME280;22411;53.016;18.632;2023-02-18T10:26:43;100036.81;;;7.39;100.00
36380;BME280;22411;53.016;18.632;2023-02-18T10:29:18;100044.69;;;7.50;100.00
36380;BME280;22411;53.016;18.632;2023-02-18T10:31:55;100039.13;;;7.56;100.00
36380;BME280;22411;53.016;18.632;2023-02-18T10:34:47;100064.53;;;7.89;100.00
36380;BME280;22411;53.016;18.632;2023-02-18T10:46:21;100022.59;;;7.46;100.00
36380;BME280;22411;53.016;18.632;2023-02-18T10:51:47;100017.31;;;7.20;100.00
36380;BME280;22411;53.016;18.632;2023-02-18T10:54:14;100028.66;;;7.18;100.00
36380;BME280;22411;53.016;18.632;2023-02-18T10:56:47;100004.50;;;7.60;100.00
36380;BME280;22411;53.016;18.632;2023-02-18T10:59:20;100014.28;;;7.95;100.00
36380;BME280;22411;53.016;18.632;2023-02-18T11:01:55;100003.28;;;7.66;100.00
36380;BME280;22411;53.016;18.632;2023-02-18T11:04:41;100003.19;;;7.80;100.00
36380;BME280;22411;53.016;18.632;2023-02-18T11:07:24;100000.06;;;8.02;100.00
36380;BME280;22411;53.016;18.632;2023-02-18T11:13:05;99992.03;;;8.19;100.00
36380;BME280;22411;53.016;18.632;2023-02-18T11:15:32;99988.69;;;8.17;100.00
36380;BME280;22411;53.016;18.632;2023-02-18T11:18:14;99986.78;;;8.46;100.00
36380;BME280;22411;53.016;18.632;2023-02-18T11:20:59;99987.53;;;9.10;100.00
36380;BME280;22411;53.016;18.632;2023-02-18T11:23:27;99968.47;;;9.83;100.00
36380;BME280;22411;53.016;18.632;2023-02-18T11:26:06;99970.97;;;10.54;96.33
36380;BME280;22411;53.016;18.632;2023-02-18T11:28:42;99965.22;;;10.39;95.10
36380;BME280;22411;53.016;18.632;2023-02-18T11:31:23;99969.44;;;10.29;98.49
36380;BME280;22411;53.016;18.632;2023-02-18T11:33:58;99964.44;;;9.20;100.00
36380;BME280;22411;53.016;18.632;2023-02-18T11:36:30;99971.19;;;8.48;100.00
36380;BME280;22411;53.016;18.632;2023-02-18T11:39:13;99988.44;;;8.47;100.00
36380;BME280;22411;53.016;18.632;2023-02-18T11:42:10;99962.06;;;9.41;100.00
36380;BME280;22411;53.016;18.632;2023-02-18T11:44:36;99960.72;;;9.94;100.00
36380;BME280;22411;53.016;18.632;2023-02-18T11:47:04;99933.19;;;9.58;100.00
36380;BME280;22411;53.016;18.632;2023-02-18T11:49:33;99952.97;;;8.75;100.00
36380;BME280;22411;53.016;18.632;2023-02-18T11:52:23;99938.44;;;8.10;100.00
36380;BME280;22411;53.016;18.632;2023-02-18T11:55:21;99950.88;;;7.91;100.00
36380;BME280;22411;53.016;18.632;2023-02-18T11:57:55;99943.25;;;7.76;100.00
36380;BME280;22411;53.016;18.632;2023-02-18T12:02:51;99929.78;;;7.58;100.00
36380;BME280;22411;53.016;18.632;2023-02-18T12:07:49;99920.50;;;7.56;100.00
36380;BME280;22411;53.016;18.632;2023-02-18T12:10:22;99913.59;;;7.56;100.00
36380;BME280;22411;53.016;18.632;2023-02-18T12:12:56;99909.19;;;7.71;100.00
36380;BME280;22411;53.016;18.632;2023-02-18T12:16:19;99907.84;;;7.78;100.00
36380;BME280;22411;53.016;18.632;2023-02-18T12:26:22;99916.22;;;7.42;100.00
36380;BME280;22411;53.016;18.632;2023-02-18T12:40:18;99953.78;;;7.19;100.00
36380;BME280;22411;53.016;18.632;2023-02-18T12:45:47;99913.03;;;7.12;100.00
36380;BME280;22411;53.016;18.632;2023-02-18T12:48:26;99907.16;;;7.10;100.00
36380;BME280;22411;53.016;18.632;2023-02-18T12:51:24;99903.09;;;7.05;100.00
36380;BME280;22411;53.016;18.632;2023-02-18T12:54:09;99896.75;;;7.11;100.00
36380;BME280;22411;53.016;18.632;2023-02-18T13:04:39;99884.66;;;6.99;100.00
36380;BME280;22411;53.016;18.632;2023-02-18T13:13:16;99874.59;;;7.08;100.00
36380;BME280;22411;53.016;18.632;2023-02-18T13:15:52;99884.25;;;7.05;100.00
36380;BME280;22411;53.016;18.632;2023-02-18T13:18:33;99879.09;;;7.05;100.00
36380;BME280;22411;53.016;18.632;2023-02-18T13:21:06;99858.16;;;6.97;100.00
36380;BME280;22411;53.016;18.632;2023-02-18T13:23:48;99850.13;;;7.01;100.00
36380;BME280;22411;53.016;18.632;2023-02-18T13:26:17;99841.19;;;7.07;100.00
36380;BME280;22411;53.016;18.632;2023-02-18T13:33:57;99837.53;;;6.97;100.00
36380;BME280;22411;53.016;18.632;2023-02-18T13:36:58;99842.19;;;7.04;100.00
36380;BME280;22411;53.016;18.632;2023-02-18T13:39:27;99838.97;;;7.01;100.00
36380;BME280;22411;53.016;18.632;2023-02-18T13:47:40;99836.22;;;7.04;100.00
36380;BME280;22411;53.016;18.632;2023-02-18T13:55:50;99832.41;;;7.10;100.00
36380;BME280;22411;53.016;18.632;2023-02-18T13:58:42;99839.31;;;7.09;100.00
36380;BME280;22411;53.016;18.632;2023-02-18T14:06:17;99837.25;;;7.01;100.00
36380;BME280;22411;53.016;18.632;2023-02-18T14:08:44;99829.66;;;7.13;100.00
36380;BME280;22411;53.016;18.632;2023-02-18T14:13:54;99824.97;;;7.05;100.00
36380;BME280;22411;53.016;18.632;2023-02-18T14:16:21;99824.03;;;6.93;100.00
36380;BME280;22411;53.016;18.632;2023-02-18T14:18:57;99815.72;;;7.02;100.00
36380;BME280;22411;53.016;18.632;2023-02-18T14:21:39;99818.47;;;6.99;100.00
36380;BME280;22411;53.016;18.632;2023-02-18T14:24:08;99826.50;;;6.95;100.00
36380;BME280;22411;53.016;18.632;2023-02-18T14:26:43;99805.84;;;6.82;100.00
36380;BME280;22411;53.016;18.632;2023-02-18T14:29:26;99802.41;;;6.69;100.00
36380;BME280;22411;53.016;18.632;2023-02-18T14:32:02;99818.13;;;6.64;100.00
36380;BME280;22411;53.016;18.632;2023-02-18T14:37:25;99816.19;;;6.41;100.00
36380;BME280;22411;53.016;18.632;2023-02-18T14:40:35;99801.50;;;6.28;100.00
36380;BME280;22411;53.016;18.632;2023-02-18T14:51:31;99821.44;;;5.38;100.00
36380;BME280;22411;53.016;18.632;2023-02-18T14:54:04;99806.63;;;5.27;100.00
36380;BME280;22411;53.016;18.632;2023-02-18T14:56:36;99805.34;;;5.20;100.00
36380;BME280;22411;53.016;18.632;2023-02-18T14:59:04;99815.31;;;5.10;100.00
36380;BME280;22411;53.016;18.632;2023-02-18T15:01:34;99810.47;;;4.90;100.00
36380;BME280;22411;53.016;18.632;2023-02-18T15:04:01;99822.72;;;4.85;100.00
36380;BME280;22411;53.016;18.632;2023-02-18T15:06:31;99809.50;;;4.77;100.00
36380;BME280;22411;53.016;18.632;2023-02-18T15:08:59;99806.53;;;4.68;100.00
36380;BME280;22411;53.016;18.632;2023-02-18T15:11:40;99825.75;;;4.61;100.00
36380;BME280;22411;53.016;18.632;2023-02-18T15:14:20;99818.63;;;4.51;100.00